Time;durP1;ratioP1;P1;durP2;ratioP2;P2;SDS_P1;SDS_P2;PMS_P1;PMS_P2;Temp;Humidity;BMP_temperature;BMP_pressure;BME280_temperature;BME280_humidity;BME280_pressure;Samples;Min_cycle;Max_cycle;Signal;HPM_P1;HPM_P2
2023/07/27 00:02:15;;;;;;;1.77;0.20;;;;;;;12.98;100.00;100599.47;5090440;28;20513;-74
2023/07/27 00:04:41;;;;;;;0.30;0.10;;;;;;;13.10;100.00;100590.34;5091344;28;20036;-74
2023/07/27 00:07:06;;;;;;;0.65;0.20;;;;;;;13.19;100.00;100597.28;5090909;28;20020;-74
2023/07/27 00:09:31;;;;;;;0.45;0.10;;;;;;;13.22;100.00;100603.03;5088906;28;20024;-74
2023/07/27 00:11:57;;;;;;;3.22;0.10;;;;;;;13.22;100.00;100599.59;5090090;28;20081;-74
2023/07/27 00:14:22;;;;;;;0.38;0.10;;;;;;;13.16;100.00;100605.47;5091228;28;20459;-74
2023/07/27 00:16:48;;;;;;;1.27;0.10;;;;;;;13.11;100.00;100597.22;5089833;28;20032;-74
2023/07/27 00:19:13;;;;;;;0.25;0.03;;;;;;;13.09;100.00;100596.56;5088955;28;20036;-74
2023/07/27 00:21:38;;;;;;;0.32;0.10;;;;;;;13.10;100.00;100596.41;5091082;28;20047;-74
2023/07/27 00:24:04;;;;;;;2.65;0.10;;;;;;;13.01;100.00;100599.16;5090671;28;20028;-74
2023/07/27 00:26:30;;;;;;;2.22;0.03;;;;;;;12.93;100.00;100595.50;5090331;28;20035;-73
2023/07/27 00:28:55;;;;;;;0.20;0.10;;;;;;;12.89;100.00;100594.19;5087411;28;20391;-74
2023/07/27 00:31:21;;;;;;;2.30;0.10;;;;;;;12.86;100.00;100588.44;5089294;28;20024;-74
2023/07/27 00:33:46;;;;;;;0.90;0.10;;;;;;;12.90;100.00;100585.38;5089081;28;20028;-74
2023/07/27 00:36:11;;;;;;;0.60;0.10;;;;;;;13.00;100.00;100579.19;5091018;28;20379;-74
2023/07/27 00:38:37;;;;;;;1.58;0.10;;;;;;;13.00;100.00;100580.03;5088862;28;20495;-74
2023/07/27 00:41:02;;;;;;;3.30;0.10;;;;;;;12.99;100.00;100577.56;5088583;28;20047;-74
2023/07/27 00:43:28;;;;;;;2.80;0.10;;;;;;;12.94;100.00;100573.63;5089728;28;20119;-74
2023/07/27 00:45:55;;;;;;;0.47;0.10;;;;;;;12.98;100.00;100576.72;5088192;28;20555;-74
2023/07/27 00:48:21;;;;;;;1.30;0.10;;;;;;;12.98;100.00;100574.13;5087913;28;20035;-74
2023/07/27 00:50:47;;;;;;;0.30;0.10;;;;;;;12.92;100.00;100582.59;5089876;28;20028;-74
2023/07/27 00:53:14;;;;;;;0.60;0.15;;;;;;;12.83;100.00;100575.69;5090737;28;20035;-74
2023/07/27 00:55:40;;;;;;;1.38;0.10;;;;;;;12.78;100.00;100575.31;5090624;28;20039;-74
2023/07/27 00:58:06;;;;;;;1.58;1.23;;;;;;;12.82;100.00;100572.25;5086280;28;20028;-74
2023/07/27 01:00:32;;;;;;;1.10;0.20;;;;;;;12.82;100.00;100569.63;5087113;28;20479;-74
2023/07/27 01:03:00;;;;;;;2.80;0.10;;;;;;;12.87;100.00;100566.53;5089023;28;20042;-73
2023/07/27 01:05:26;;;;;;;1.00;0.08;;;;;;;12.81;100.00;100565.38;5090424;28;20023;-74
2023/07/27 01:07:51;;;;;;;1.85;0.17;;;;;;;12.83;100.00;100573.06;5088240;28;20039;-74
2023/07/27 01:10:20;;;;;;;0.35;0.10;;;;;;;12.79;100.00;100569.94;5089469;28;20107;-73
2023/07/27 01:12:53;;;;;;;2.80;0.10;;;;;;;12.78;100.00;100567.47;5089691;28;20486;-74
2023/07/27 01:15:23;;;;;;;0.32;0.10;;;;;;;12.77;100.00;100571.88;5085362;28;20048;-74
2023/07/27 01:18:38;;;;;;;0.60;0.10;;;;;;;12.72;100.00;100565.53;5085194;28;20040;-74
2023/07/27 01:21:13;;;;;;;0.20;0.10;;;;;;;12.66;100.00;100563.53;5084055;28;20055;-73
2023/07/27 01:23:50;;;;;;;0.60;0.10;;;;;;;12.64;100.00;100568.91;5090305;28;20024;-74
2023/07/27 01:26:49;;;;;;;1.00;0.10;;;;;;;12.51;100.00;100571.94;5084716;28;20161;-74
2023/07/27 01:29:28;;;;;;;1.33;0.10;;;;;;;12.56;100.00;100566.25;5086774;28;20133;-74
2023/07/27 01:31:54;;;;;;;0.25;0.10;;;;;;;12.61;100.00;100566.59;5087781;28;20086;-73
2023/07/27 01:34:42;;;;;;;2.67;0.10;;;;;;;12.62;100.00;100566.44;5080089;28;20036;-75
2023/07/27 01:37:11;;;;;;;1.00;0.10;;;;;;;12.62;100.00;100566.44;5087826;28;20054;-74
2023/07/27 01:39:43;;;;;;;0.30;0.10;;;;;;;12.61;100.00;100564.00;5085522;28;20028;-75
2023/07/27 01:42:11;;;;;;;0.75;0.10;;;;;;;12.61;100.00;100564.00;5072795;28;20101;-74
2023/07/27 01:44:37;;;;;;;1.67;0.17;;;;;;;12.57;100.00;100573.94;5085360;28;20345;-74
2023/07/27 01:47:04;;;;;;;4.13;0.10;;;;;;;12.54;100.00;100584.69;5081430;28;20063;-73
2023/07/27 01:49:32;;;;;;;0.30;0.10;;;;;;;12.51;100.00;100581.56;5086770;28;20127;-74
2023/07/27 01:51:58;;;;;;;1.02;0.03;;;;;;;12.47;100.00;100590.69;5084678;28;20046;-73
2023/07/27 01:54:26;;;;;;;1.85;0.10;;;;;;;12.51;100.00;100590.22;5090169;28;20032;-74
2023/07/27 01:56:53;;;;;;;0.50;0.10;;;;;;;12.51;100.00;100589.41;5089255;28;20093;-73
2023/07/27 01:59:21;;;;;;;1.08;0.10;;;;;;;12.53;100.00;100590.06;5088705;28;20032;-74
2023/07/27 02:01:48;;;;;;;0.47;0.10;;;;;;;12.49;100.00;100586.94;5093116;28;20036;-74
2023/07/27 02:04:14;;;;;;;0.20;0.10;;;;;;;12.53;100.00;100585.66;5092936;28;20035;-74
2023/07/27 02:06:39;;;;;;;0.25;0.10;;;;;;;12.46;100.00;100597.69;5090837;28;20035;-74
2023/07/27 02:09:05;;;;;;;0.30;0.10;;;;;;;12.42;100.00;100609.44;5090722;28;20027;-74
2023/07/27 02:11:31;;;;;;;1.38;0.20;;;;;;;12.44;100.00;100601.44;5093724;28;20040;-74
2023/07/27 02:14:09;;;;;;;0.88;0.10;;;;;;;12.45;100.00;100608.31;5093201;28;20372;-74
2023/07/27 02:16:45;;;;;;;0.60;0.10;;;;;;;12.33;100.00;100612.13;5093485;28;20048;-73
2023/07/27 02:19:15;;;;;;;1.40;0.10;;;;;;;12.39;100.00;100616.75;5090817;28;20044;-74
2023/07/27 02:21:42;;;;;;;1.38;0.10;;;;;;;12.32;100.00;100627.00;5092882;28;20024;-74
2023/07/27 02:24:08;;;;;;;0.40;0.15;;;;;;;12.20;100.00;100629.03;5092361;28;20034;-73
2023/07/27 02:26:34;;;;;;;0.30;0.10;;;;;;;12.34;100.00;100625.03;5093144;28;20402;-73
2023/07/27 02:29:00;;;;;;;0.73;0.10;;;;;;;12.49;100.00;100622.72;5089820;28;20036;-74
2023/07/27 02:31:25;;;;;;;0.52;0.10;;;;;;;12.49;100.00;100633.16;5093374;28;20111;-74
2023/07/27 02:33:51;;;;;;;0.77;0.20;;;;;;;12.47;100.00;100642.94;5091114;28;20040;-74
2023/07/27 02:36:16;;;;;;;0.40;0.10;;;;;;;12.46;100.00;100641.31;5093280;28;20028;-74
2023/07/27 02:38:42;;;;;;;0.50;0.10;;;;;;;12.47;100.00;100642.94;5091830;28;20028;-74
2023/07/27 02:41:11;;;;;;;0.10;0.10;;;;;;;12.48;100.00;100645.41;5089800;28;20074;-74
2023/07/27 02:43:40;;;;;;;1.42;0.10;;;;;;;12.49;100.00;100648.84;5091342;28;20352;-74
2023/07/27 02:46:08;;;;;;;0.32;0.10;;;;;;;12.45;100.00;100647.50;5091544;28;20032;-74
2023/07/27 02:48:33;;;;;;;0.98;0.00;;;;;;;12.43;100.00;100655.50;5090955;28;20027;-74
2023/07/27 02:50:59;;;;;;;0.40;0.10;;;;;;;12.39;100.00;100650.72;5092055;28;20437;-74
2023/07/27 02:53:24;;;;;;;1.00;0.22;;;;;;;12.35;100.00;100652.81;5092303;28;20035;-74
2023/07/27 02:55:56;;;;;;;0.50;0.10;;;;;;;12.36;100.00;100656.25;5084544;28;20056;-74
2023/07/27 02:58:22;;;;;;;0.50;0.10;;;;;;;12.35;100.00;100658.03;5088340;28;20099;-74
2023/07/27 03:00:53;;;;;;;0.40;0.10;;;;;;;12.32;100.00;100658.34;5092045;28;20529;-74
2023/07/27 03:03:18;;;;;;;0.57;0.22;;;;;;;12.30;100.00;100655.06;5091467;28;20027;-74
2023/07/27 03:05:43;;;;;;;0.50;0.17;;;;;;;12.33;100.00;100664.38;5090287;28;20032;-75
2023/07/27 03:08:09;;;;;;;0.95;0.10;;;;;;;12.32;100.00;100660.94;5091085;28;20387;-74
2023/07/27 03:10:35;;;;;;;0.40;0.10;;;;;;;12.32;100.00;100657.53;5092577;28;20107;-74
2023/07/27 03:13:00;;;;;;;0.38;0.10;;;;;;;12.43;100.00;100655.50;5091878;28;20024;-74
2023/07/27 03:15:26;;;;;;;0.75;0.10;;;;;;;12.58;100.00;100650.53;5089797;28;20051;-74
2023/07/27 03:17:51;;;;;;;0.40;0.10;;;;;;;12.76;100.00;100656.53;5088389;28;20035;-74
2023/07/27 03:20:16;;;;;;;0.30;0.10;;;;;;;12.80;100.00;100657.88;5086274;28;20035;-74
2023/07/27 03:22:42;;;;;;;0.40;0.10;;;;;;;12.87;100.00;100664.13;5092345;28;20040;-74
2023/07/27 03:25:08;;;;;;;0.38;0.10;;;;;;;12.91;100.00;100664.63;5082943;28;20055;-74
2023/07/27 03:27:33;;;;;;;0.30;0.10;;;;;;;12.98;100.00;100667.44;5085972;28;20032;-74
2023/07/27 03:29:58;;;;;;;0.45;0.10;;;;;;;13.02;100.00;100671.41;5091288;28;20036;-73
2023/07/27 03:32:24;;;;;;;1.95;0.10;;;;;;;13.07;100.00;100675.19;5090829;28;20032;-73
2023/07/27 03:34:49;;;;;;;1.85;0.10;;;;;;;13.08;100.00;100671.59;5089947;28;20039;-74
2023/07/27 03:37:15;;;;;;;0.38;0.10;;;;;;;13.15;100.00;100669.19;5089305;28;20034;-74
2023/07/27 03:39:40;;;;;;;5.68;0.90;;;;;;;13.15;100.00;100674.41;5091844;28;20031;-74
2023/07/27 03:42:06;;;;;;;0.10;0.00;;;;;;;13.18;100.00;100682.00;5091222;28;20108;-74
2023/07/27 03:44:31;;;;;;;1.77;0.00;;;;;;;13.17;100.00;100682.97;5091712;28;20135;-73
2023/07/27 03:46:57;;;;;;;0.22;0.10;;;;;;;13.13;100.00;100679.00;5087999;28;20035;-73
2023/07/27 03:49:22;;;;;;;1.80;0.10;;;;;;;13.14;100.00;100689.28;5085703;28;20028;-75
2023/07/27 03:51:48;;;;;;;1.08;0.10;;;;;;;13.14;100.00;100697.16;5088768;28;20039;-74
2023/07/27 03:54:13;;;;;;;0.52;0.10;;;;;;;13.14;100.00;100699.75;5091414;28;20063;-74
2023/07/27 03:56:38;;;;;;;1.13;0.03;;;;;;;13.12;100.00;100693.03;5088006;28;20029;-73
2023/07/27 03:59:04;;;;;;;0.85;0.00;;;;;;;13.13;100.00;100684.22;5090900;28;20028;-74
2023/07/27 04:01:29;;;;;;;0.20;0.10;;;;;;;13.18;100.00;100682.81;5091677;28;20028;-74
2023/07/27 04:03:55;;;;;;;0.35;0.10;;;;;;;13.22;100.00;100688.56;5088189;28;20032;-74
2023/07/27 04:06:20;;;;;;;0.30;0.10;;;;;;;13.24;100.00;100690.00;5084897;28;20106;-74
2023/07/27 04:08:45;;;;;;;1.42;0.20;;;;;;;13.28;100.00;100688.72;5086071;28;20056;-74
2023/07/27 04:11:11;;;;;;;0.28;0.05;;;;;;;13.33;100.00;100690.88;5090803;28;20032;-74
2023/07/27 04:13:37;;;;;;;0.47;0.10;;;;;;;13.31;100.00;100695.44;5091357;28;20032;-74
2023/07/27 04:16:04;;;;;;;0.40;0.10;;;;;;;13.32;100.00;100691.84;5089900;28;20056;-73
2023/07/27 04:18:30;;;;;;;1.63;0.10;;;;;;;13.27;100.00;100686.25;5085246;28;20024;-74
2023/07/27 04:20:55;;;;;;;0.28;0.08;;;;;;;13.23;100.00;100682.34;5081925;28;20039;-74
2023/07/27 04:23:20;;;;;;;0.45;0.10;;;;;;;13.18;100.00;100695.88;5090456;28;20548;-74
2023/07/27 04:25:46;;;;;;;1.73;0.20;;;;;;;13.18;100.00;100689.84;5083552;28;20020;-75
2023/07/27 04:28:11;;;;;;;0.77;0.10;;;;;;;13.17;100.00;100685.59;5089499;28;20032;-74
2023/07/27 04:30:36;;;;;;;0.30;0.10;;;;;;;13.21;100.00;100687.72;5090960;28;20039;-75
2023/07/27 04:33:02;;;;;;;0.93;0.10;;;;;;;13.22;100.00;100693.78;5088275;28;20043;-74
2023/07/27 04:35:27;;;;;;;0.20;0.00;;;;;;;13.27;100.00;100691.50;5090362;28;20032;-74
2023/07/27 04:37:53;;;;;;;0.20;0.03;;;;;;;13.26;100.00;100690.69;5085668;28;20123;-74
2023/07/27 04:40:19;;;;;;;0.30;0.10;;;;;;;13.32;100.00;100689.22;5090244;28;20028;-75
2023/07/27 04:42:44;;;;;;;0.30;0.10;;;;;;;13.36;100.00;100695.78;5089307;28;20036;-74
2023/07/27 04:45:10;;;;;;;2.85;0.10;;;;;;;13.39;100.00;100685.00;5084268;28;20043;-74
2023/07/27 04:47:35;;;;;;;0.30;0.10;;;;;;;13.48;100.00;100689.31;5088079;28;20061;-74
2023/07/27 04:50:02;;;;;;;1.80;0.20;;;;;;;13.63;100.00;100675.63;5086777;28;20059;-74
2023/07/27 04:52:28;;;;;;;0.80;0.10;;;;;;;13.74;100.00;100685.78;5090408;28;20173;-74
2023/07/27 04:54:53;;;;;;;0.20;0.10;;;;;;;13.84;100.00;100681.22;5089195;28;20114;-74
2023/07/27 04:57:18;;;;;;;0.55;0.10;;;;;;;13.91;100.00;100684.84;5089879;28;20047;-73
2023/07/27 04:59:44;;;;;;;0.43;0.10;;;;;;;14.05;100.00;100689.47;5087343;28;20046;-74
2023/07/27 05:02:09;;;;;;;1.65;0.10;;;;;;;14.23;100.00;100691.91;5086572;28;20119;-72
2023/07/27 05:04:35;;;;;;;0.68;0.10;;;;;;;14.38;98.65;100692.91;5086430;28;20028;-72
2023/07/27 05:07:00;;;;;;;0.77;0.10;;;;;;;14.47;96.72;100696.41;5089764;28;20031;-72
2023/07/27 05:09:26;;;;;;;0.60;0.10;;;;;;;14.55;97.76;100699.03;5087820;28;20028;-72
2023/07/27 05:11:51;;;;;;;0.77;0.10;;;;;;;14.59;99.24;100705.56;5087930;28;20051;-71
2023/07/27 05:14:16;;;;;;;1.30;0.10;;;;;;;14.63;98.24;100716.56;5089580;28;20102;-72
2023/07/27 05:16:43;;;;;;;0.52;0.10;;;;;;;14.57;99.17;100718.84;5089159;28;20044;-72
2023/07/27 05:19:08;;;;;;;2.15;0.10;;;;;;;14.52;99.62;100725.56;5080286;28;20119;-72
2023/07/27 05:21:34;;;;;;;1.42;0.10;;;;;;;14.39;100.00;100725.19;5085302;28;20146;-72
2023/07/27 05:23:59;;;;;;;1.25;0.10;;;;;;;14.37;100.00;100725.34;5088536;28;20036;-72
2023/07/27 05:26:25;;;;;;;0.22;0.10;;;;;;;14.40;100.00;100725.03;5088247;28;20031;-72
2023/07/27 05:28:50;;;;;;;0.17;0.00;;;;;;;14.44;100.00;100729.00;5089559;28;20050;-72
2023/07/27 05:31:16;;;;;;;0.20;0.00;;;;;;;14.41;100.00;100731.09;5084182;28;20379;-73
2023/07/27 05:33:41;;;;;;;0.32;0.10;;;;;;;14.45;99.79;100732.44;5102856;28;20035;-72
2023/07/27 05:36:06;;;;;;;0.60;0.10;;;;;;;14.58;99.78;100735.41;5093090;28;20055;-72
2023/07/27 05:38:32;;;;;;;0.50;0.10;;;;;;;14.70;97.99;100739.31;5094511;28;20032;-72
2023/07/27 05:41:01;;;;;;;0.43;0.10;;;;;;;14.77;99.39;100727.19;5093762;28;20053;-72
2023/07/27 05:43:27;;;;;;;1.15;0.10;;;;;;;14.84;99.75;100733.41;5094633;28;20072;-73
2023/07/27 05:45:52;;;;;;;0.32;0.10;;;;;;;14.91;98.75;100733.56;5090211;28;20028;-72
2023/07/27 05:48:18;;;;;;;0.43;0.10;;;;;;;14.97;97.98;100738.16;5093491;28;20028;-72
2023/07/27 05:50:43;;;;;;;0.43;0.10;;;;;;;15.02;98.15;100735.84;5093874;28;20131;-72
2023/07/27 05:53:09;;;;;;;0.20;0.08;;;;;;;15.13;98.06;100729.41;5096823;28;20309;-73
2023/07/27 05:55:34;;;;;;;0.52;0.10;;;;;;;15.24;97.26;100731.69;5085501;28;20032;-73
2023/07/27 05:58:00;;;;;;;0.30;0.03;;;;;;;15.43;98.16;100733.13;5093490;28;20043;-73
2023/07/27 06:00:26;;;;;;;2.25;0.10;;;;;;;15.48;95.56;100734.25;5091405;28;20028;-73
2023/07/27 06:02:51;;;;;;;0.95;0.85;;;;;;;15.59;96.30;100736.53;5092347;28;20170;-73
2023/07/27 06:05:16;;;;;;;2.28;0.10;;;;;;;15.69;95.53;100740.75;5094292;28;20107;-73
2023/07/27 06:07:42;;;;;;;1.00;0.10;;;;;;;15.72;94.81;100743.84;5097641;28;20478;-73
2023/07/27 06:10:08;;;;;;;0.20;0.08;;;;;;;15.77;93.61;100738.09;5092939;28;20094;-73
2023/07/27 06:12:34;;;;;;;0.30;0.10;;;;;;;15.95;94.85;100735.22;5094009;28;20106;-72
2023/07/27 06:14:59;;;;;;;2.15;0.10;;;;;;;16.07;93.98;100739.88;5092105;28;20074;-73
2023/07/27 06:17:27;;;;;;;0.93;0.50;;;;;;;16.16;93.95;100738.84;5092882;28;20044;-74
2023/07/27 06:19:52;;;;;;;2.30;0.10;;;;;;;16.27;92.53;100741.09;5091041;28;20085;-73
2023/07/27 06:22:18;;;;;;;0.22;0.10;;;;;;;16.37;91.65;100740.84;5093048;28;20078;-73
2023/07/27 06:24:44;;;;;;;1.65;0.10;;;;;;;16.52;92.21;100751.44;5093263;28;20486;-73
2023/07/27 06:27:09;;;;;;;0.50;0.10;;;;;;;16.59;91.49;100752.34;5093699;28;20032;-73
2023/07/27 06:29:35;;;;;;;0.30;0.10;;;;;;;16.63;91.79;100756.25;5086947;28;20039;-72
2023/07/27 06:32:00;;;;;;;0.35;0.10;;;;;;;16.68;90.33;100753.94;5092929;28;20073;-72
2023/07/27 06:34:26;;;;;;;0.63;0.10;;;;;;;16.70;89.94;100751.97;5093760;28;20107;-73
2023/07/27 06:36:51;;;;;;;0.70;0.10;;;;;;;16.85;89.40;100752.00;5092840;28;20033;-72
2023/07/27 06:39:17;;;;;;;0.63;0.10;;;;;;;17.03;89.66;100749.03;5091243;28;20027;-73
2023/07/27 06:41:43;;;;;;;10.18;0.17;;;;;;;17.13;88.51;100752.22;5087288;28;20327;-72
2023/07/27 06:44:08;;;;;;;0.20;0.00;;;;;;;17.17;88.06;100759.56;5079667;28;20043;-73
2023/07/27 06:46:34;;;;;;;0.93;0.10;;;;;;;17.32;87.78;100759.59;5088988;28;20029;-72
2023/07/27 06:49:00;;;;;;;0.57;0.20;;;;;;;17.49;88.40;100753.13;5092269;28;20506;-73
2023/07/27 06:51:25;;;;;;;0.80;0.10;;;;;;;17.57;87.60;100760.13;5091981;28;20027;-72
2023/07/27 06:53:51;;;;;;;1.45;0.10;;;;;;;17.67;88.41;100744.88;5084692;28;20036;-72
2023/07/27 06:56:19;;;;;;;0.38;0.10;;;;;;;17.68;87.19;100750.97;5084028;28;20036;-70
2023/07/27 06:58:45;;;;;;;1.10;0.10;;;;;;;17.70;85.91;100743.69;5091939;28;20028;-71
2023/07/27 07:01:10;;;;;;;0.88;0.20;;;;;;;17.71;85.74;100750.59;5090180;28;20028;-71
2023/07/27 07:03:36;;;;;;;0.32;0.10;;;;;;;17.77;86.40;100741.97;5089602;28;20138;-71
2023/07/27 07:06:02;;;;;;;0.10;0.00;;;;;;;17.84;85.46;100742.88;5091005;28;20036;-71
2023/07/27 07:08:27;;;;;;;2.25;0.10;;;;;;;17.98;84.67;100735.91;5093120;28;20140;-71
2023/07/27 07:10:53;;;;;;;0.50;0.10;;;;;;;18.09;85.00;100740.69;5087087;28;20729;-71
2023/07/27 07:13:18;;;;;;;0.40;0.10;;;;;;;18.13;85.55;100740.13;5090974;28;20107;-70
2023/07/27 07:15:45;;;;;;;0.47;0.10;;;;;;;18.19;85.52;100741.22;5088870;28;20052;-71
2023/07/27 07:18:10;;;;;;;1.00;0.05;;;;;;;18.27;85.71;100737.63;5090964;28;20162;-71
2023/07/27 07:20:36;;;;;;;0.60;0.10;;;;;;;18.34;85.53;100741.16;5090234;28;20036;-71
2023/07/27 07:23:02;;;;;;;0.40;0.10;;;;;;;18.42;85.93;100733.94;5091501;28;20485;-71
2023/07/27 07:25:27;;;;;;;0.45;0.10;;;;;;;18.59;85.33;100729.19;5092786;28;20024;-71
2023/07/27 07:27:52;;;;;;;1.33;0.10;;;;;;;18.74;84.89;100727.34;5089998;28;20036;-71
2023/07/27 07:30:18;;;;;;;0.73;0.10;;;;;;;18.93;84.62;100727.66;5092581;28;20035;-71
2023/07/27 07:32:43;;;;;;;1.50;0.10;;;;;;;19.02;83.00;100723.84;5091803;28;20513;-71
2023/07/27 07:35:09;;;;;;;0.85;0.20;;;;;;;18.95;82.56;100718.53;5099619;28;20028;-70
2023/07/27 07:37:34;;;;;;;0.40;0.10;;;;;;;18.98;83.37;100723.44;5090233;28;20117;-71
2023/07/27 07:40:00;;;;;;;3.40;0.10;;;;;;;18.80;82.38;100726.56;5091325;28;20035;-71
2023/07/27 07:42:25;;;;;;;0.68;0.10;;;;;;;18.72;83.89;100726.72;5089110;28;20032;-71
2023/07/27 07:44:51;;;;;;;0.73;0.10;;;;;;;18.94;81.51;100722.19;5090967;28;20056;-70
2023/07/27 07:47:16;;;;;;;0.65;0.10;;;;;;;19.22;78.77;100722.16;5088184;28;20470;-69
2023/07/27 07:49:42;;;;;;;0.47;0.10;;;;;;;19.36;80.27;100715.13;5090691;28;20036;-70
2023/07/27 07:52:07;;;;;;;1.00;0.10;;;;;;;19.54;79.47;100712.78;5088341;28;20434;-70
2023/07/27 07:54:33;;;;;;;0.40;0.10;;;;;;;19.77;78.66;100718.59;5087198;28;20031;-70
2023/07/27 07:56:59;;;;;;;0.68;0.10;;;;;;;19.92;77.30;100712.31;5082150;28;20064;-70
2023/07/27 07:59:24;;;;;;;0.45;0.10;;;;;;;20.01;75.46;100708.47;5088853;28;20089;-69
2023/07/27 08:01:50;;;;;;;0.90;0.10;;;;;;;20.12;76.39;100715.81;5088708;28;20028;-69
2023/07/27 08:04:17;;;;;;;2.45;0.20;;;;;;;20.22;75.69;100710.97;5087454;28;20043;-70
2023/07/27 08:06:43;;;;;;;2.05;0.20;;;;;;;20.30;72.16;100704.66;5095413;28;20065;-69
2023/07/27 08:09:09;;;;;;;3.08;0.20;;;;;;;20.36;74.14;100707.28;5086971;28;20038;-70
2023/07/27 08:11:35;;;;;;;1.33;0.10;;;;;;;20.43;74.90;100715.25;5088804;28;20387;-70
2023/07/27 08:14:02;;;;;;;0.28;0.10;;;;;;;20.48;75.11;100711.00;5090129;28;20121;-70
2023/07/27 08:16:28;;;;;;;1.30;0.20;;;;;;;20.73;73.95;100710.41;5087307;28;20179;-71
2023/07/27 08:18:54;;;;;;;0.57;0.10;;;;;;;20.84;72.72;100707.91;5086587;28;20038;-70
2023/07/27 08:21:19;;;;;;;0.22;0.10;;;;;;;20.94;70.57;100704.03;5089050;28;20986;-70
2023/07/27 08:23:45;;;;;;;1.73;0.20;;;;;;;20.85;70.15;100706.06;5090783;28;20043;-70
2023/07/27 08:26:10;;;;;;;0.63;0.10;;;;;;;20.91;69.03;100707.09;5090160;28;20030;-70
2023/07/27 08:28:35;;;;;;;0.47;0.10;;;;;;;21.18;69.33;100696.25;5087608;28;20032;-70
2023/07/27 08:31:05;;;;;;;1.13;0.10;;;;;;;21.40;66.12;100701.28;5090247;28;20555;-71
2023/07/27 08:33:31;;;;;;;0.20;0.10;;;;;;;21.46;64.83;100708.41;5090674;28;20433;-70
2023/07/27 08:35:57;;;;;;;0.85;0.10;;;;;;;21.59;63.73;100708.38;5082662;28;20020;-70
2023/07/27 08:38:24;;;;;;;0.68;0.10;;;;;;;21.61;63.47;100700.19;5081046;28;20028;-70
2023/07/27 08:41:07;;;;;;;1.25;0.20;;;;;;;21.72;58.12;100703.00;5089232;28;20483;-70
2023/07/27 08:43:34;;;;;;;1.17;0.10;;;;;;;21.92;65.11;100696.75;5088990;28;20412;-70
2023/07/27 08:46:00;;;;;;;0.20;0.10;;;;;;;21.98;63.16;100701.22;5090741;28;20455;-70
2023/07/27 08:48:28;;;;;;;0.50;0.20;;;;;;;22.05;62.82;100700.19;5089331;28;20036;-70
2023/07/27 08:50:54;;;;;;;0.75;0.17;;;;;;;22.22;62.94;100689.03;5088757;28;20410;-70
2023/07/27 08:53:20;;;;;;;0.45;0.10;;;;;;;22.38;63.09;100694.63;5081893;28;20031;-71
2023/07/27 08:55:45;;;;;;;0.95;0.10;;;;;;;22.25;61.83;100688.59;5089930;28;20036;-73
2023/07/27 08:58:11;;;;;;;0.93;0.20;;;;;;;22.14;59.07;100698.91;5090536;28;20123;-70
2023/07/27 09:00:38;;;;;;;0.40;0.10;;;;;;;22.22;60.71;100697.81;5090738;28;20027;-71
2023/07/27 09:03:04;;;;;;;3.50;0.20;;;;;;;22.24;60.95;100700.25;5087952;28;20032;-70
2023/07/27 09:05:44;;;;;;;0.30;0.10;;;;;;;22.34;59.51;100701.41;5089555;28;20082;-71
2023/07/27 09:08:14;;;;;;;0.50;0.20;;;;;;;22.66;62.29;100694.22;5088941;28;20075;-71
2023/07/27 09:10:41;;;;;;;0.35;0.15;;;;;;;22.70;62.90;100700.69;5090916;28;20084;-72
2023/07/27 09:13:07;;;;;;;0.60;0.20;;;;;;;22.67;62.44;100705.63;5090510;28;20540;-71
2023/07/27 09:15:34;;;;;;;0.50;0.20;;;;;;;22.58;61.85;100697.13;5092111;28;20087;-71
2023/07/27 09:18:08;;;;;;;2.00;0.20;;;;;;;22.46;56.59;100699.66;5091160;28;20056;-70
2023/07/27 09:20:34;;;;;;;0.55;0.10;;;;;;;22.38;61.05;100699.13;5085974;28;20031;-70
2023/07/27 09:22:59;;;;;;;0.40;0.20;;;;;;;22.59;61.50;100698.75;5089703;28;20168;-71
2023/07/27 09:25:25;;;;;;;0.60;0.20;;;;;;;22.63;61.75;100705.25;5090415;28;20032;-70
2023/07/27 09:27:55;;;;;;;0.50;0.10;;;;;;;22.34;60.08;100692.63;5090040;28;20075;-70
2023/07/27 09:30:24;;;;;;;0.20;0.10;;;;;;;22.46;60.25;100694.38;5090492;28;20433;-70
2023/07/27 09:32:51;;;;;;;0.73;0.20;;;;;;;22.31;57.93;100693.06;5089229;28;20544;-70
2023/07/27 09:35:19;;;;;;;0.60;0.20;;;;;;;22.36;57.20;100693.22;5090503;28;20024;-70
2023/07/27 09:37:47;;;;;;;1.35;0.20;;;;;;;22.32;56.96;100689.38;5090066;28;20443;-70
2023/07/27 09:40:14;;;;;;;0.40;0.20;;;;;;;22.45;58.38;100681.31;5090445;28;20032;-70
2023/07/27 09:42:42;;;;;;;0.30;0.10;;;;;;;22.68;58.63;100684.19;5089183;28;20061;-69
2023/07/27 09:45:08;;;;;;;0.35;0.10;;;;;;;22.39;55.65;100690.13;5089956;28;20085;-70
2023/07/27 09:47:34;;;;;;;0.60;0.20;;;;;;;22.32;56.03;100676.09;5090695;28;20028;-70
2023/07/27 09:50:01;;;;;;;0.70;0.22;;;;;;;22.40;56.78;100681.13;5089912;28;20082;-70
2023/07/27 09:52:27;;;;;;;0.65;0.20;;;;;;;22.59;57.83;100676.69;5090129;28;20039;-70
2023/07/27 09:54:58;;;;;;;0.40;0.13;;;;;;;22.47;57.65;100681.91;5096438;28;20024;-70
2023/07/27 09:57:24;;;;;;;0.60;0.20;;;;;;;22.83;58.15;100676.69;5093700;28;20036;-70
2023/07/27 09:59:51;;;;;;;0.65;0.20;;;;;;;23.01;58.21;100669.78;5095845;28;20066;-70
2023/07/27 10:02:17;;;;;;;0.65;0.17;;;;;;;22.97;57.98;100669.41;5095137;28;20490;-70
2023/07/27 10:04:46;;;;;;;0.85;0.15;;;;;;;22.90;57.41;100662.53;5096378;28;20178;-70
2023/07/27 10:07:12;;;;;;;0.80;0.20;;;;;;;23.00;57.36;100663.66;5092160;28;20145;-69
2023/07/27 10:09:38;;;;;;;0.40;0.20;;;;;;;23.07;57.17;100663.56;5095655;28;20042;-70
2023/07/27 10:12:04;;;;;;;1.00;0.30;;;;;;;23.05;57.48;100666.44;5098648;28;20118;-70
2023/07/27 10:14:31;;;;;;;0.52;0.20;;;;;;;22.94;57.92;100663.72;5090910;28;20480;-69
2023/07/27 10:17:07;;;;;;;0.65;0.20;;;;;;;23.04;57.54;100664.00;5097134;28;20395;-69
2023/07/27 10:19:54;;;;;;;0.98;0.20;;;;;;;22.91;56.99;100657.00;5093729;28;20055;-70
2023/07/27 10:22:19;;;;;;;0.70;0.20;;;;;;;22.78;59.80;100647.31;5098726;28;20180;-70
2023/07/27 10:24:47;;;;;;;0.30;0.10;;;;;;;22.87;60.46;100647.03;5099986;28;20600;-70
2023/07/27 10:27:13;;;;;;;0.47;0.10;;;;;;;23.08;59.96;100646.59;5099078;28;20066;-69
2023/07/27 10:29:38;;;;;;;0.50;0.15;;;;;;;22.90;56.68;100654.56;5099979;28;20055;-70
2023/07/27 10:32:10;;;;;;;1.40;0.20;;;;;;;22.88;58.00;100648.66;5102560;28;20023;-70
2023/07/27 10:34:37;;;;;;;0.63;0.20;;;;;;;23.22;58.52;100639.25;5095700;28;20481;-70
2023/07/27 10:37:04;;;;;;;0.38;0.10;;;;;;;23.54;58.40;100647.91;5098184;28;20071;-70
2023/07/27 10:39:43;;;;;;;0.50;0.10;;;;;;;23.40;55.67;100648.03;5099838;28;20487;-70
2023/07/27 10:42:12;;;;;;;0.38;0.10;;;;;;;23.04;58.67;100653.38;5091124;28;20466;-70
2023/07/27 10:44:50;;;;;;;1.80;0.20;;;;;;;23.14;56.15;100659.81;5097365;28;20028;-70
2023/07/27 10:47:22;;;;;;;0.40;0.10;;;;;;;23.46;57.72;100651.63;5096044;28;20118;-70
2023/07/27 10:49:49;;;;;;;0.22;0.10;;;;;;;23.55;55.50;100652.19;5100183;28;20503;-71
2023/07/27 10:52:23;;;;;;;0.65;0.10;;;;;;;23.02;51.78;100648.28;5100059;28;20086;-69
2023/07/27 10:54:49;;;;;;;0.57;0.15;;;;;;;22.98;55.69;100648.94;5100248;28;20036;-70
2023/07/27 10:57:17;;;;;;;0.38;0.10;;;;;;;22.96;54.99;100635.09;5091896;28;20026;-70
2023/07/27 10:59:50;;;;;;;0.25;0.10;;;;;;;22.74;54.18;100638.13;5086021;28;20032;-71
2023/07/27 11:02:20;;;;;;;0.50;0.20;;;;;;;22.86;54.50;100637.44;5086299;28;20065;-70
2023/07/27 11:04:48;;;;;;;0.30;0.10;;;;;;;23.08;55.15;100634.13;5089563;28;20224;-70
2023/07/27 11:07:33;;;;;;;0.43;0.10;;;;;;;23.04;53.25;100637.44;5093033;28;20439;-70
2023/07/27 11:10:04;;;;;;;0.25;0.10;;;;;;;22.96;53.97;100643.84;5090804;28;20043;-70
2023/07/27 11:12:30;;;;;;;0.20;0.10;;;;;;;22.76;54.69;100638.72;5093027;28;20113;-70
2023/07/27 11:15:16;;;;;;;0.40;0.10;;;;;;;22.77;48.73;100636.88;5089389;28;20044;-70
2023/07/27 11:17:42;;;;;;;0.60;0.10;;;;;;;22.76;53.86;100638.72;5091382;28;20043;-70
2023/07/27 11:20:10;;;;;;;0.38;0.10;;;;;;;22.88;54.23;100646.81;5092339;28;20036;-70
2023/07/27 11:22:36;;;;;;;0.90;0.10;;;;;;;22.92;53.55;100625.94;5087919;28;20028;-70